Key Largo, FL (33037)

3:53 PM EDT on April 28, 2015 (GMT -0400)
Cross Key Waterways | | Change Station
CLOSE
Current Station
Personal Weather Station
Location: Key Largo, FL
Elevation: 8 ft
Nearby Weather Stations

Elev 8 ft 25.13 °N, 80.41 °W | Updated 8 minutes ago

Partly Cloudy
Partly Cloudy
86.4 °F
Feels Like 97 °F
N
12.4
Wind Variable Wind from West
Gusts 14.8 mph

Today
High -- | Low -- °F
--% Chance of Precip.
Yesterday
High -- | Low -- °F
Precip. -- in
6:48 AM 7:50 PM
Waxing Gibbous, 76% visible
Pressure 29.76 in
Visibility 10.0 miles
Clouds Few 3500 ft
Scattered Clouds 15000 ft
Scattered Clouds 18000 ft
Scattered Clouds 21000 ft
Heat Index 97 °F
Dew Point 76 °F
Humidity 71%
Rainfall 0.00 in
Snow Depth Not available.
UV 10 out of 12
Pollen 3.80 out of 12
Air Quality Not available.
Flu Activity Local Activity
METAR KHST 281858Z AUTO 22013KT 10SM FEW035 SCT150 SCT180 SCT210 31/23 A2975 RMK AO2 SLP077 T03090230

More Conditions Fewer Conditions

Pressure 29.76 in
Visibility 10.0 miles
Clouds Few 3500 ft
Scattered Clouds 15000 ft
Scattered Clouds 18000 ft
Scattered Clouds 21000 ft
Heat Index 97 °F
Dew Point 76 °F
Humidity 71%
Rainfall 0.00 in
Snow Depth Not available.
UV 10 out of 12
Pollen 3.80 out of 12
Air Quality Not available.
Flu Activity Local Activity
METAR KHST 281858Z AUTO 22013KT 10SM FEW035 SCT150 SCT180 SCT210 31/23 A2975 RMK AO2 SLP077 T03090230

More Conditions Fewer Conditions

10-Day Weather Forecast

Almanac

Astronomy

Apr. 28, 2015 Rise Set
Actual Time
Civil Twilight
Nautical Twilight
Astronomical Twilight
Moon
Length of Visible Light
Length of Day
Tomorrow will be .
, % of the Moon is Illuminated

Today's Extremes

State Highs State Lows

Community

WunderPhotos

Upload Photos

1,817,741 photos uploaded!

WunderBlogs® & News

Nearby

Air Quality

  Air Quality AQ Index Pollutant
Not available.

Snow Depth

Station Depth Elevation

Earthquake Activity

City Distance Mag. Time & Date
Minimum magnitude displayed is 2.5.

Coastal Water Temperatures

Place Temperature

Stations

Nearby Weather Stations

Station Location Temp. Windchill Dew Point Humidity Wind Precip. Elev Updated Type